sensor_id;sensor_type;location;lat;lon;timestamp;P1;durP1;ratioP1;P2;durP2;ratioP2
2416;SDS011;1219;48.736;9.330;2022-09-03T12:13:00;4.93;;;4.53;;
2416;SDS011;1219;48.736;9.330;2022-09-03T12:18:16;3.63;;;3.43;;
2416;SDS011;1219;48.736;9.330;2022-09-03T12:20:45;5.10;;;4.70;;
2416;SDS011;1219;48.736;9.330;2022-09-03T12:23:24;5.33;;;3.50;;
2416;SDS011;1219;48.736;9.330;2022-09-03T12:25:52;5.43;;;4.20;;
2416;SDS011;1219;48.736;9.330;2022-09-03T12:28:18;3.80;;;2.70;;
2416;SDS011;1219;48.736;9.330;2022-09-03T12:30:47;1.83;;;1.70;;
2416;SDS011;1219;48.736;9.330;2022-09-03T12:33:16;2.63;;;1.60;;
2416;SDS011;1219;48.736;9.330;2022-09-03T12:35:43;3.67;;;1.70;;
2416;SDS011;1219;48.736;9.330;2022-09-03T12:38:11;2.80;;;1.70;;
2416;SDS011;1219;48.736;9.330;2022-09-03T12:40:40;2.10;;;1.30;;
2416;SDS011;1219;48.736;9.330;2022-09-03T12:43:11;3.93;;;1.60;;
2416;SDS011;1219;48.736;9.330;2022-09-03T12:45:44;2.70;;;1.60;;
2416;SDS011;1219;48.736;9.330;2022-09-03T12:48:14;2.80;;;1.60;;
2416;SDS011;1219;48.736;9.330;2022-09-03T12:50:41;1.80;;;1.70;;
2416;SDS011;1219;48.736;9.330;2022-09-03T12:53:08;2.47;;;2.27;;
2416;SDS011;1219;48.736;9.330;2022-09-03T12:55:45;4.00;;;1.57;;
2416;SDS011;1219;48.736;9.330;2022-09-03T13:00:39;6.53;;;2.67;;
2416;SDS011;1219;48.736;9.330;2022-09-03T13:03:21;2.77;;;1.73;;
2416;SDS011;1219;48.736;9.330;2022-09-03T13:05:57;10.20;;;2.00;;
2416;SDS011;1219;48.736;9.330;2022-09-03T13:08:28;2.10;;;1.63;;
2416;SDS011;1219;48.736;9.330;2022-09-03T13:10:56;4.27;;;2.60;;
2416;SDS011;1219;48.736;9.330;2022-09-03T13:13:27;4.80;;;1.97;;
2416;SDS011;1219;48.736;9.330;2022-09-03T13:16:05;3.13;;;2.10;;
2416;SDS011;1219;48.736;9.330;2022-09-03T13:26:24;2.50;;;2.30;;
2416;SDS011;1219;48.736;9.330;2022-09-03T13:31:21;1.70;;;1.60;;
2416;SDS011;1219;48.736;9.330;2022-09-03T13:34:08;3.30;;;2.20;;
2416;SDS011;1219;48.736;9.330;2022-09-03T13:36:47;2.13;;;1.60;;
2416;SDS011;1219;48.736;9.330;2022-09-03T13:39:20;2.03;;;1.80;;
2416;SDS011;1219;48.736;9.330;2022-09-03T13:41:48;1.80;;;1.70;;
2416;SDS011;1219;48.736;9.330;2022-09-03T13:44:23;5.33;;;2.00;;
2416;SDS011;1219;48.736;9.330;2022-09-03T13:49:40;1.60;;;1.50;;
2416;SDS011;1219;48.736;9.330;2022-09-03T13:52:29;2.57;;;1.57;;
2416;SDS011;1219;48.736;9.330;2022-09-03T13:54:57;1.80;;;1.50;;
2416;SDS011;1219;48.736;9.330;2022-09-03T13:57:27;2.60;;;1.60;;
2416;SDS011;1219;48.736;9.330;2022-09-03T13:59:55;2.00;;;1.60;;
2416;SDS011;1219;48.736;9.330;2022-09-03T14:02:39;6.53;;;1.67;;
2416;SDS011;1219;48.736;9.330;2022-09-03T14:05:09;2.17;;;1.97;;
2416;SDS011;1219;48.736;9.330;2022-09-03T14:18:11;1.50;;;1.40;;
2416;SDS011;1219;48.736;9.330;2022-09-03T14:20:46;1.97;;;1.40;;
2416;SDS011;1219;48.736;9.330;2022-09-03T14:23:27;1.20;;;1.10;;
2416;SDS011;1219;48.736;9.330;2022-09-03T14:25:56;2.47;;;1.43;;
2416;SDS011;1219;48.736;9.330;2022-09-03T14:28:34;1.30;;;1.20;;
2416;SDS011;1219;48.736;9.330;2022-09-03T14:31:10;1.57;;;1.30;;
2416;SDS011;1219;48.736;9.330;2022-09-03T14:33:54;1.27;;;1.17;;
2416;SDS011;1219;48.736;9.330;2022-09-03T14:41:31;1.10;;;1.00;;
2416;SDS011;1219;48.736;9.330;2022-09-03T14:46:31;1.10;;;1.00;;
2416;SDS011;1219;48.736;9.330;2022-09-03T15:01:30;1.00;;;1.00;;
2416;SDS011;1219;48.736;9.330;2022-09-03T15:04:09;2.00;;;0.90;;
2416;SDS011;1219;48.736;9.330;2022-09-03T15:15:23;1.10;;;1.00;;
2416;SDS011;1219;48.736;9.330;2022-09-03T15:30:21;2.33;;;1.17;;
2416;SDS011;1219;48.736;9.330;2022-09-03T15:32:48;1.20;;;1.00;;
2416;SDS011;1219;48.736;9.330;2022-09-03T15:37:53;1.50;;;1.30;;
2416;SDS011;1219;48.736;9.330;2022-09-03T15:43:05;1.30;;;1.20;;
2416;SDS011;1219;48.736;9.330;2022-09-03T15:45:39;1.60;;;1.30;;
2416;SDS011;1219;48.736;9.330;2022-09-03T15:48:20;2.30;;;1.30;;
2416;SDS011;1219;48.736;9.330;2022-09-03T15:50:52;1.40;;;1.30;;
2416;SDS011;1219;48.736;9.330;2022-09-03T15:53:24;1.20;;;1.10;;
2416;SDS011;1219;48.736;9.330;2022-09-03T15:56:01;1.30;;;1.20;;
2416;SDS011;1219;48.736;9.330;2022-09-03T15:58:31;1.57;;;1.03;;
2416;SDS011;1219;48.736;9.330;2022-09-03T16:00:59;1.07;;;0.97;;
2416;SDS011;1219;48.736;9.330;2022-09-03T16:03:34;1.63;;;1.27;;
2416;SDS011;1219;48.736;9.330;2022-09-03T16:06:15;1.60;;;1.50;;
2416;SDS011;1219;48.736;9.330;2022-09-03T16:08:53;1.20;;;1.07;;
2416;SDS011;1219;48.736;9.330;2022-09-03T16:11:29;1.43;;;1.33;;
2416;SDS011;1219;48.736;9.330;2022-09-03T16:16:30;1.30;;;1.20;;
2416;SDS011;1219;48.736;9.330;2022-09-03T16:21:54;1.80;;;1.70;;
2416;SDS011;1219;48.736;9.330;2022-09-03T16:27:15;2.03;;;1.50;;
2416;SDS011;1219;48.736;9.330;2022-09-03T16:29:42;2.80;;;1.47;;
2416;SDS011;1219;48.736;9.330;2022-09-03T16:32:36;1.87;;;1.47;;
2416;SDS011;1219;48.736;9.330;2022-09-03T16:38:00;2.60;;;1.47;;
2416;SDS011;1219;48.736;9.330;2022-09-03T16:42:58;1.57;;;1.47;;
2416;SDS011;1219;48.736;9.330;2022-09-03T16:45:31;1.50;;;1.40;;
2416;SDS011;1219;48.736;9.330;2022-09-03T16:50:32;2.13;;;1.50;;
2416;SDS011;1219;48.736;9.330;2022-09-03T16:56:02;2.00;;;1.30;;
2416;SDS011;1219;48.736;9.330;2022-09-03T16:58:52;3.07;;;1.50;;
2416;SDS011;1219;48.736;9.330;2022-09-03T17:06:19;3.50;;;3.23;;
2416;SDS011;1219;48.736;9.330;2022-09-03T17:09:04;5.00;;;2.00;;
2416;SDS011;1219;48.736;9.330;2022-09-03T17:11:40;2.17;;;2.07;;
2416;SDS011;1219;48.736;9.330;2022-09-03T17:26:33;1.50;;;1.40;;
2416;SDS011;1219;48.736;9.330;2022-09-03T17:34:12;2.67;;;2.00;;
2416;SDS011;1219;48.736;9.330;2022-09-03T17:36:46;1.90;;;1.80;;
2416;SDS011;1219;48.736;9.330;2022-09-03T17:39:34;1.60;;;1.50;;
2416;SDS011;1219;48.736;9.330;2022-09-03T17:42:16;1.77;;;1.67;;
2416;SDS011;1219;48.736;9.330;2022-09-03T17:44:55;1.83;;;1.73;;
2416;SDS011;1219;48.736;9.330;2022-09-03T17:47:42;1.77;;;1.60;;
2416;SDS011;1219;48.736;9.330;2022-09-03T17:50:17;2.70;;;1.80;;
2416;SDS011;1219;48.736;9.330;2022-09-03T17:52:48;3.43;;;1.73;;
2416;SDS011;1219;48.736;9.330;2022-09-03T17:55:19;2.20;;;1.83;;
2416;SDS011;1219;48.736;9.330;2022-09-03T17:57:47;2.17;;;2.07;;
2416;SDS011;1219;48.736;9.330;2022-09-03T18:00:21;1.63;;;1.50;;
2416;SDS011;1219;48.736;9.330;2022-09-03T18:05:21;2.73;;;1.90;;
2416;SDS011;1219;48.736;9.330;2022-09-03T18:07:50;2.90;;;1.77;;
2416;SDS011;1219;48.736;9.330;2022-09-03T18:10:24;2.07;;;1.90;;
2416;SDS011;1219;48.736;9.330;2022-09-03T18:18:45;2.23;;;2.00;;
2416;SDS011;1219;48.736;9.330;2022-09-03T18:21:22;2.37;;;2.27;;
2416;SDS011;1219;48.736;9.330;2022-09-03T18:26:43;2.13;;;1.93;;
2416;SDS011;1219;48.736;9.330;2022-09-03T18:32:15;2.07;;;1.90;;
2416;SDS011;1219;48.736;9.330;2022-09-03T18:34:59;2.10;;;2.00;;
2416;SDS011;1219;48.736;9.330;2022-09-03T18:37:44;3.00;;;2.00;;
2416;SDS011;1219;48.736;9.330;2022-09-03T18:40:35;2.37;;;2.20;;
2416;SDS011;1219;48.736;9.330;2022-09-03T18:43:38;7.60;;;2.30;;
2416;SDS011;1219;48.736;9.330;2022-09-03T18:49:27;2.50;;;2.30;;
2416;SDS011;1219;48.736;9.330;2022-09-03T18:55:11;3.20;;;2.20;;
2416;SDS011;1219;48.736;9.330;2022-09-03T19:09:51;2.50;;;2.30;;
2416;SDS011;1219;48.736;9.330;2022-09-03T19:15:23;3.20;;;2.40;;
2416;SDS011;1219;48.736;9.330;2022-09-03T19:24:07;2.90;;;2.70;;
2416;SDS011;1219;48.736;9.330;2022-09-03T19:30:04;3.43;;;2.00;;
2416;SDS011;1219;48.736;9.330;2022-09-03T19:33:05;2.30;;;2.10;;
2416;SDS011;1219;48.736;9.330;2022-09-03T19:36:03;3.20;;;2.40;;
2416;SDS011;1219;48.736;9.330;2022-09-03T19:39:02;2.50;;;2.30;;
2416;SDS011;1219;48.736;9.330;2022-09-03T19:41:51;4.23;;;2.50;;
2416;SDS011;1219;48.736;9.330;2022-09-03T19:44:53;2.73;;;2.53;;
2416;SDS011;1219;48.736;9.330;2022-09-03T19:47:57;3.03;;;2.83;;
2416;SDS011;1219;48.736;9.330;2022-09-03T19:50:50;4.10;;;3.00;;
2416;SDS011;1219;48.736;9.330;2022-09-03T19:53:39;2.50;;;2.30;;
2416;SDS011;1219;48.736;9.330;2022-09-03T19:56:27;2.90;;;2.60;;
2416;SDS011;1219;48.736;9.330;2022-09-03T19:59:16;2.80;;;2.23;;
2416;SDS011;1219;48.736;9.330;2022-09-03T20:02:02;2.77;;;2.53;;
2416;SDS011;1219;48.736;9.330;2022-09-03T20:04:50;2.60;;;2.30;;
2416;SDS011;1219;48.736;9.330;2022-09-03T20:07:35;2.60;;;2.40;;
2416;SDS011;1219;48.736;9.330;2022-09-03T20:10:20;2.70;;;2.50;;
2416;SDS011;1219;48.736;9.330;2022-09-03T20:13:02;2.90;;;2.70;;
2416;SDS011;1219;48.736;9.330;2022-09-03T20:23:41;4.13;;;3.27;;
2416;SDS011;1219;48.736;9.330;2022-09-03T20:39:28;3.50;;;3.20;;
2416;SDS011;1219;48.736;9.330;2022-09-03T20:49:40;2.70;;;2.50;;
2416;SDS011;1219;48.736;9.330;2022-09-03T20:52:13;3.33;;;3.10;;
2416;SDS011;1219;48.736;9.330;2022-09-03T20:55:03;6.33;;;2.73;;
2416;SDS011;1219;48.736;9.330;2022-09-03T21:00:15;3.03;;;2.73;;
2416;SDS011;1219;48.736;9.330;2022-09-03T21:10:51;4.17;;;2.97;;
2416;SDS011;1219;48.736;9.330;2022-09-03T21:21:42;3.27;;;2.97;;
2416;SDS011;1219;48.736;9.330;2022-09-03T21:26:36;3.13;;;2.83;;
2416;SDS011;1219;48.736;9.330;2022-09-03T21:29:20;3.93;;;3.20;;
2416;SDS011;1219;48.736;9.330;2022-09-03T21:31:51;3.67;;;3.10;;
2416;SDS011;1219;48.736;9.330;2022-09-03T21:34:19;3.00;;;2.67;;
2416;SDS011;1219;48.736;9.330;2022-09-03T21:36:45;2.90;;;2.70;;
2416;SDS011;1219;48.736;9.330;2022-09-03T21:41:47;3.40;;;3.10;;
2416;SDS011;1219;48.736;9.330;2022-09-03T21:44:23;4.60;;;2.30;;
2416;SDS011;1219;48.736;9.330;2022-09-03T21:49:18;3.17;;;2.90;;
2416;SDS011;1219;48.736;9.330;2022-09-03T21:51:56;3.50;;;2.70;;
2416;SDS011;1219;48.736;9.330;2022-09-03T21:54:31;3.97;;;3.03;;
2416;SDS011;1219;48.736;9.330;2022-09-03T21:59:50;3.80;;;3.50;;
2416;SDS011;1219;48.736;9.330;2022-09-03T22:02:23;3.83;;;3.00;;
2416;SDS011;1219;48.736;9.330;2022-09-03T22:04:50;4.90;;;2.90;;
2416;SDS011;1219;48.736;9.330;2022-09-03T22:09:48;2.80;;;2.60;;
2416;SDS011;1219;48.736;9.330;2022-09-03T22:12:19;3.10;;;2.80;;
2416;SDS011;1219;48.736;9.330;2022-09-03T22:14:48;3.80;;;2.73;;
2416;SDS011;1219;48.736;9.330;2022-09-03T22:17:25;9.53;;;3.87;;
2416;SDS011;1219;48.736;9.330;2022-09-03T22:19:55;3.80;;;3.40;;
2416;SDS011;1219;48.736;9.330;2022-09-03T22:22:27;4.50;;;3.23;;
2416;SDS011;1219;48.736;9.330;2022-09-03T22:27:42;4.00;;;3.60;;
2416;SDS011;1219;48.736;9.330;2022-09-03T22:30:12;3.63;;;3.20;;
2416;SDS011;1219;48.736;9.330;2022-09-03T22:32:42;7.00;;;3.03;;
2416;SDS011;1219;48.736;9.330;2022-09-03T22:35:15;8.90;;;3.47;;
2416;SDS011;1219;48.736;9.330;2022-09-03T22:40:51;3.67;;;3.37;;
2416;SDS011;1219;48.736;9.330;2022-09-03T22:45:52;3.50;;;3.20;;
2416;SDS011;1219;48.736;9.330;2022-09-03T22:48:22;3.20;;;3.00;;
2416;SDS011;1219;48.736;9.330;2022-09-03T22:50:55;3.77;;;3.30;;
2416;SDS011;1219;48.736;9.330;2022-09-03T22:53:39;3.80;;;3.50;;
2416;SDS011;1219;48.736;9.330;2022-09-03T22:56:08;5.87;;;2.83;;
2416;SDS011;1219;48.736;9.330;2022-09-03T22:58:41;4.20;;;3.10;;
2416;SDS011;1219;48.736;9.330;2022-09-03T23:01:28;4.03;;;3.67;;
2416;SDS011;1219;48.736;9.330;2022-09-03T23:03:56;2.90;;;2.70;;
2416;SDS011;1219;48.736;9.330;2022-09-03T23:06:34;4.10;;;3.00;;
2416;SDS011;1219;48.736;9.330;2022-09-03T23:09:03;3.50;;;3.03;;
2416;SDS011;1219;48.736;9.330;2022-09-03T23:11:31;3.50;;;3.20;;
2416;SDS011;1219;48.736;9.330;2022-09-03T23:14:01;3.77;;;2.53;;
2416;SDS011;1219;48.736;9.330;2022-09-03T23:18:55;3.87;;;3.43;;
2416;SDS011;1219;48.736;9.330;2022-09-03T23:21:26;3.30;;;3.00;;
2416;SDS011;1219;48.736;9.330;2022-09-03T23:23:55;3.80;;;3.33;;
2416;SDS011;1219;48.736;9.330;2022-09-03T23:26:26;3.03;;;2.83;;
2416;SDS011;1219;48.736;9.330;2022-09-03T23:29:16;3.13;;;2.83;;
2416;SDS011;1219;48.736;9.330;2022-09-03T23:31:41;5.90;;;3.50;;
2416;SDS011;1219;48.736;9.330;2022-09-03T23:34:10;4.50;;;3.53;;
2416;SDS011;1219;48.736;9.330;2022-09-03T23:36:47;4.40;;;4.10;;
2416;SDS011;1219;48.736;9.330;2022-09-03T23:42:06;4.20;;;3.90;;
2416;SDS011;1219;48.736;9.330;2022-09-03T23:47:09;6.07;;;4.87;;
2416;SDS011;1219;48.736;9.330;2022-09-03T23:49:44;4.40;;;4.00;;
2416;SDS011;1219;48.736;9.330;2022-09-03T23:52:21;6.30;;;4.00;;
